Terminal Aerodrome Forecast
Issued by NWS Sioux Falls, SD

Home | Current Version | Previous Version | Text Only | Print | Product List | Glossary On
Versions: 1 2 3 4 5 6 7 8 9 10 11 12 13 14 15
114
FTUS43 KFSD 131120
TAFHON
TAF
KHON 131120Z 1312/1412 33027G37KT P6SM SCT040 BKN090
     FM131900 33025G36KT P6SM BKN025
     FM132300 34017G25KT P6SM BKN025
     FM140200 33010KT P6SM BKN035
     FM141000 29006KT P6SM BKN050=

USA.gov is the U.S. government's official web portal to all federal, state and local government web resources and services.